Time;durP1;ratioP1;P1;durP2;ratioP2;P2;SDS_P1;SDS_P2;PMS_P1;PMS_P2;Temp;Humidity;BMP_temperature;BMP_pressure;BME280_temperature;BME280_humidity;BME280_pressure;Samples;Min_cycle;Max_cycle;Signal;HPM_P1;HPM_P2
2023/06/05 00:01:36;;;;;;;6.27;4.40;;;12.80;18.60;;;;;;5021585;28;20505;-70
2023/06/05 00:04:03;;;;;;;6.57;4.40;;;12.70;18.80;;;;;;5022391;28;20415;-70
2023/06/05 00:06:29;;;;;;;7.27;5.20;;;12.70;19.10;;;;;;5020618;28;20439;-70
2023/06/05 00:08:54;;;;;;;5.80;3.80;;;12.60;19.20;;;;;;5022502;28;20450;-71
2023/06/05 00:11:21;;;;;;;5.50;3.70;;;12.60;19.30;;;;;;5021103;28;20458;-71
2023/06/05 00:13:47;;;;;;;5.33;4.20;;;12.60;19.10;;;;;;5021459;28;20183;-71
2023/06/05 00:16:13;;;;;;;7.03;4.97;;;12.50;19.40;;;;;;5022632;28;20441;-71
2023/06/05 00:18:39;;;;;;;5.70;4.43;;;12.50;19.80;;;;;;5022394;28;20454;-70
2023/06/05 00:21:04;;;;;;;7.67;5.23;;;12.50;19.80;;;;;;5022903;28;20172;-71
2023/06/05 00:23:30;;;;;;;8.97;5.23;;;12.40;19.90;;;;;;5022294;28;20176;-70
2023/06/05 00:25:57;;;;;;;5.93;3.83;;;12.40;20.00;;;;;;5023097;28;20172;-70
2023/06/05 00:28:24;;;;;;;7.30;4.97;;;12.30;20.00;;;;;;5022456;28;20437;-71
2023/06/05 00:30:50;;;;;;;5.87;4.53;;;12.20;20.30;;;;;;5022989;28;20417;-71
2023/06/05 00:33:15;;;;;;;4.83;4.30;;;12.20;19.90;;;;;;5023852;28;20465;-70
2023/06/05 00:35:42;;;;;;;6.67;4.47;;;12.20;16.40;;;;;;5023873;28;20415;-70
2023/06/05 00:38:08;;;;;;;6.60;5.60;;;12.20;15.60;;;;;;5023237;28;20215;-69
2023/06/05 00:40:33;;;;;;;4.63;3.53;;;12.20;15.60;;;;;;5023185;28;20415;-70
2023/06/05 00:42:59;;;;;;;5.23;4.23;;;12.10;15.50;;;;;;5022699;28;20199;-70
2023/06/05 00:45:25;;;;;;;5.50;4.10;;;12.10;15.50;;;;;;5022688;28;20180;-70
2023/06/05 00:47:51;;;;;;;5.27;4.23;;;12.10;15.50;;;;;;5022550;28;20441;-69
2023/06/05 00:50:17;;;;;;;5.10;4.60;;;12.10;15.50;;;;;;5022581;28;20179;-70
2023/06/05 00:52:43;;;;;;;13.07;4.63;;;12.00;15.40;;;;;;5020429;28;20199;-70
2023/06/05 00:55:10;;;;;;;5.90;4.00;;;12.00;15.50;;;;;;5022580;28;20770;-70
2023/06/05 00:57:38;;;;;;;6.10;4.40;;;12.00;15.40;;;;;;5021506;28;20460;-69
2023/06/05 01:00:07;;;;;;;6.17;4.30;;;11.90;15.60;;;;;;5023359;28;20557;-69
2023/06/05 01:02:34;;;;;;;7.10;4.70;;;11.90;15.80;;;;;;5022572;28;21021;-69
2023/06/05 01:05:00;;;;;;;6.00;4.90;;;11.80;15.90;;;;;;5022633;28;20418;-69
2023/06/05 01:07:27;;;;;;;8.20;4.07;;;11.80;16.60;;;;;;5022607;28;20422;-70
2023/06/05 01:09:54;;;;;;;5.97;4.80;;;11.70;16.60;;;;;;5021882;28;20418;-69
2023/06/05 01:13:03;;;;;;;4.70;3.80;;;11.70;17.50;;;;;;5020770;28;20444;-70
2023/06/05 01:15:31;;;;;;;8.57;4.93;;;11.70;17.30;;;;;;5026767;28;20452;-70
2023/06/05 01:17:58;;;;;;;7.47;5.13;;;11.60;17.40;;;;;;5028005;28;20940;-70
2023/06/05 01:20:38;;;;;;;5.20;3.67;;;11.60;17.70;;;;;;5031140;28;20421;-70
2023/06/05 01:23:07;;;;;;;5.30;4.50;;;11.50;17.90;;;;;;5030733;28;20464;-71
2023/06/05 01:25:34;;;;;;;4.27;3.70;;;11.50;18.70;;;;;;5028474;28;20422;-69
2023/06/05 01:28:15;;;;;;;6.47;4.40;;;11.50;18.80;;;;;;5027743;28;20425;-70
2023/06/05 01:31:00;;;;;;;4.30;3.60;;;11.50;18.10;;;;;;5027249;28;20413;-70
2023/06/05 01:33:50;;;;;;;7.57;5.07;;;11.40;18.50;;;;;;5026916;28;20427;-70
2023/06/05 01:36:16;;;;;;;9.00;4.83;;;11.40;19.30;;;;;;5026527;28;20436;-69
2023/06/05 01:38:43;;;;;;;6.70;3.87;;;11.40;19.10;;;;;;5027104;28;20546;-70
2023/06/05 01:41:13;;;;;;;5.13;4.63;;;11.30;18.50;;;;;;5027718;28;20508;-70
2023/06/05 01:43:39;;;;;;;8.17;3.83;;;11.30;18.80;;;;;;5028374;28;20410;-69
2023/06/05 01:46:08;;;;;;;6.70;5.20;;;11.30;18.50;;;;;;5028209;28;20768;-70
2023/06/05 01:48:35;;;;;;;9.43;4.20;;;11.20;18.20;;;;;;5027601;28;20516;-70
2023/06/05 01:51:01;;;;;;;6.00;4.70;;;11.20;18.40;;;;;;5027969;28;20418;-70
2023/06/05 01:53:28;;;;;;;9.40;4.03;;;11.20;18.60;;;;;;5026393;28;20440;-70
2023/06/05 01:55:57;;;;;;;6.40;3.90;;;11.20;18.60;;;;;;5026272;28;20910;-71
2023/06/05 01:58:26;;;;;;;6.67;5.00;;;11.20;18.40;;;;;;5025970;28;20460;-70
2023/06/05 02:00:56;;;;;;;8.20;4.10;;;11.20;18.30;;;;;;5027131;28;20421;-69
2023/06/05 02:03:22;;;;;;;5.17;4.20;;;11.20;18.40;;;;;;5027378;28;20401;-72
2023/06/05 02:05:49;;;;;;;5.47;4.07;;;11.20;18.30;;;;;;5027101;28;20500;-70
2023/06/05 02:08:19;;;;;;;5.47;4.43;;;11.20;18.30;;;;;;5026963;28;20440;-70
2023/06/05 02:10:52;;;;;;;7.23;5.10;;;11.20;18.10;;;;;;5027246;28;20420;-70
2023/06/05 02:13:24;;;;;;;5.47;3.60;;;11.20;18.70;;;;;;5027231;28;20416;-70
2023/06/05 02:15:55;;;;;;;7.30;4.97;;;11.10;19.00;;;;;;5027910;28;20503;-69
2023/06/05 02:18:25;;;;;;;5.60;4.57;;;11.10;19.00;;;;;;5027594;28;20475;-70
2023/06/05 02:20:57;;;;;;;6.43;3.90;;;11.10;19.10;;;;;;5028436;28;20444;-69
2023/06/05 02:23:23;;;;;;;7.20;4.60;;;11.00;19.00;;;;;;5028187;28;20429;-69
2023/06/05 02:25:48;;;;;;;6.53;5.80;;;11.00;19.00;;;;;;5027854;28;20412;-69
2023/06/05 02:28:15;;;;;;;7.20;4.77;;;11.00;19.00;;;;;;5028113;28;20197;-73
2023/06/05 02:30:44;;;;;;;8.63;5.40;;;11.00;19.00;;;;;;5026589;28;20190;-69
2023/06/05 02:33:10;;;;;;;6.33;3.97;;;10.90;19.50;;;;;;5027425;28;20483;-70
2023/06/05 02:35:36;;;;;;;4.00;3.20;;;10.90;19.60;;;;;;5028108;28;20420;-70
2023/06/05 02:38:04;;;;;;;5.27;4.37;;;10.90;19.60;;;;;;5027298;28;21051;-69
2023/06/05 02:40:30;;;;;;;7.20;5.27;;;10.80;19.30;;;;;;5028036;28;20480;-71
2023/06/05 02:42:56;;;;;;;5.67;5.07;;;10.80;19.80;;;;;;5028217;28;20430;-69
2023/06/05 02:45:21;;;;;;;5.43;3.90;;;10.70;20.10;;;;;;5028311;28;20173;-70
2023/06/05 02:47:48;;;;;;;7.40;4.57;;;10.70;20.60;;;;;;5028037;28;20187;-70
2023/06/05 02:50:14;;;;;;;5.60;4.67;;;10.60;20.70;;;;;;5028325;28;20662;-70
2023/06/05 02:52:40;;;;;;;6.67;4.37;;;10.60;21.10;;;;;;5028356;28;20469;-69
2023/06/05 02:55:07;;;;;;;5.87;4.57;;;10.60;21.00;;;;;;5028472;28;20269;-69
2023/06/05 02:57:35;;;;;;;7.60;4.63;;;10.50;20.90;;;;;;5028858;28;20454;-70
2023/06/05 03:00:03;;;;;;;5.60;4.60;;;10.50;21.30;;;;;;5028529;28;20450;-70
2023/06/05 03:02:29;;;;;;;6.03;5.03;;;10.40;22.00;;;;;;5026641;28;20558;-70
2023/06/05 03:04:55;;;;;;;5.83;3.93;;;10.40;22.20;;;;;;5028613;28;20488;-69
2023/06/05 03:07:22;;;;;;;6.80;4.90;;;10.30;22.20;;;;;;5027666;28;20180;-69
2023/06/05 03:09:48;;;;;;;6.90;5.13;;;10.40;22.70;;;;;;5027368;28;20910;-68
2023/06/05 03:12:13;;;;;;;7.67;4.53;;;10.30;22.80;;;;;;5026707;28;20449;-70
2023/06/05 03:14:39;;;;;;;7.60;5.40;;;10.30;22.80;;;;;;5026402;28;20191;-71
2023/06/05 03:17:05;;;;;;;7.60;3.93;;;10.30;22.70;;;;;;5027412;28;20273;-70
2023/06/05 03:19:30;;;;;;;9.00;4.57;;;10.30;22.80;;;;;;5028166;28;20174;-69
2023/06/05 03:21:56;;;;;;;6.13;4.43;;;10.30;22.80;;;;;;5026508;28;20194;-68
2023/06/05 03:24:24;;;;;;;6.03;3.50;;;10.30;22.80;;;;;;5027470;28;20555;-69
2023/06/05 03:26:50;;;;;;;6.80;4.23;;;10.30;22.70;;;;;;5027378;28;20198;-69
2023/06/05 03:29:16;;;;;;;5.40;4.73;;;10.40;22.70;;;;;;5027321;28;20427;-68
2023/06/05 03:31:42;;;;;;;5.90;4.27;;;10.30;22.80;;;;;;5027453;28;20460;-69
2023/06/05 03:34:08;;;;;;;7.40;5.20;;;10.30;22.80;;;;;;5027770;28;20593;-69
2023/06/05 03:36:34;;;;;;;6.00;4.73;;;10.40;22.60;;;;;;5025568;28;20433;-69
2023/06/05 03:39:00;;;;;;;6.63;4.70;;;10.40;22.30;;;;;;5027838;28;20201;-69
2023/06/05 03:41:26;;;;;;;6.80;4.60;;;10.40;22.40;;;;;;5027615;28;20811;-68
2023/06/05 03:43:52;;;;;;;5.80;4.33;;;10.50;22.00;;;;;;5027219;28;20460;-69
2023/06/05 03:46:20;;;;;;;4.73;4.23;;;10.50;22.20;;;;;;5027318;28;20435;-69
2023/06/05 03:48:48;;;;;;;5.50;4.30;;;10.50;21.90;;;;;;5026701;28;20421;-70
2023/06/05 03:51:18;;;;;;;4.10;3.63;;;10.60;22.50;;;;;;5027316;28;20433;-70
2023/06/05 03:53:44;;;;;;;10.13;4.73;;;10.50;22.90;;;;;;5026292;28;20429;-69
2023/06/05 03:56:10;;;;;;;6.90;4.10;;;10.50;22.50;;;;;;5027235;28;20424;-71
2023/06/05 03:58:35;;;;;;;6.13;4.10;;;10.60;22.10;;;;;;5026760;28;20493;-70
2023/06/05 04:01:01;;;;;;;6.83;4.53;;;10.60;21.80;;;;;;5026666;28;20188;-68
2023/06/05 04:03:27;;;;;;;6.00;4.10;;;10.70;21.80;;;;;;5026293;28;20209;-72
2023/06/05 04:05:53;;;;;;;5.90;4.63;;;10.70;22.70;;;;;;5026627;28;20790;-69
2023/06/05 04:08:19;;;;;;;6.70;4.70;;;10.70;22.60;;;;;;5026414;28;20422;-70
2023/06/05 04:10:44;;;;;;;5.13;4.27;;;10.80;22.40;;;;;;5025882;28;20415;-69
2023/06/05 04:13:10;;;;;;;8.30;4.57;;;10.80;22.40;;;;;;5024857;28;20432;-70
2023/06/05 04:15:36;;;;;;;5.67;3.50;;;10.80;22.30;;;;;;5024300;28;20244;-72
2023/06/05 04:18:02;;;;;;;5.77;4.50;;;10.90;22.00;;;;;;5024873;28;20207;-70
2023/06/05 04:20:28;;;;;;;7.30;4.73;;;10.90;21.50;;;;;;5023756;28;20436;-69
2023/06/05 04:22:53;;;;;;;4.33;3.90;;;11.00;22.00;;;;;;5025631;28;20444;-68
2023/06/05 04:25:19;;;;;;;9.23;6.10;;;11.00;22.00;;;;;;5025432;28;20202;-69
2023/06/05 04:27:49;;;;;;;4.90;4.20;;;11.00;22.00;;;;;;5025409;28;20193;-70
2023/06/05 04:30:15;;;;;;;6.20;4.43;;;11.10;23.20;;;;;;5025225;28;20188;-70
2023/06/05 04:32:41;;;;;;;7.13;4.53;;;11.10;23.00;;;;;;5016691;28;20464;-69
2023/06/05 04:35:08;;;;;;;7.43;4.67;;;11.20;22.90;;;;;;5012694;28;20435;-69
2023/06/05 04:37:35;;;;;;;7.97;4.80;;;11.30;23.10;;;;;;5012521;28;20502;-69
2023/06/05 04:40:05;;;;;;;7.80;5.87;;;11.30;22.80;;;;;;5012610;28;20946;-69
2023/06/05 04:42:31;;;;;;;6.20;4.50;;;11.40;22.60;;;;;;5011299;28;20957;-69
2023/06/05 04:44:58;;;;;;;6.70;4.93;;;11.50;21.90;;;;;;5012823;28;20707;-70
2023/06/05 04:47:24;;;;;;;6.40;5.77;;;11.60;22.30;;;;;;5010933;28;20460;-68
2023/06/05 04:49:51;;;;;;;8.90;6.27;;;11.70;22.60;;;;;;5013048;28;20441;-69
2023/06/05 04:52:18;;;;;;;7.33;4.57;;;11.80;22.90;;;;;;5011386;28;20500;-68
2023/06/05 04:54:43;;;;;;;8.20;5.60;;;11.90;22.50;;;;;;5011430;28;20433;-68
2023/06/05 04:57:10;;;;;;;5.13;3.90;;;12.00;22.40;;;;;;5012466;28;21041;-69
2023/06/05 04:59:36;;;;;;;6.10;4.90;;;12.10;22.10;;;;;;5012305;28;20587;-69
2023/06/05 05:02:02;;;;;;;6.53;4.90;;;12.10;22.10;;;;;;5012310;28;20462;-69
2023/06/05 05:04:27;;;;;;;12.20;6.40;;;12.20;18.80;;;;;;5012337;28;20430;-69
2023/06/05 05:06:53;;;;;;;5.77;4.20;;;12.40;17.60;;;;;;5012263;28;20453;-69
2023/06/05 05:09:18;;;;;;;6.60;4.50;;;12.60;17.50;;;;;;5012167;28;20179;-69
2023/06/05 05:11:44;;;;;;;8.33;4.33;;;12.70;17.70;;;;;;5010652;28;20601;-69
2023/06/05 05:14:10;;;;;;;7.90;4.47;;;12.80;18.60;;;;;;5012238;28;20184;-69
2023/06/05 05:16:35;;;;;;;12.53;4.77;;;12.90;18.70;;;;;;5012235;28;20653;-69
2023/06/05 05:19:01;;;;;;;5.20;4.40;;;13.00;20.20;;;;;;5012218;28;20184;-68
2023/06/05 05:21:26;;;;;;;12.13;5.80;;;13.10;19.90;;;;;;5012448;28;20291;-69
2023/06/05 05:23:52;;;;;;;9.50;4.30;;;13.20;19.30;;;;;;5010883;28;20188;-69
2023/06/05 05:26:18;;;;;;;7.57;5.07;;;13.40;19.40;;;;;;5012506;28;20182;-69
2023/06/05 05:28:43;;;;;;;7.73;4.10;;;13.60;18.10;;;;;;5012026;28;20191;-70
2023/06/05 05:31:09;;;;;;;7.30;4.23;;;13.70;18.00;;;;;;5010518;28;20216;-68
2023/06/05 05:33:35;;;;;;;6.97;4.77;;;13.90;17.20;;;;;;5011749;28;20180;-68
2023/06/05 05:36:01;;;;;;;6.93;4.30;;;14.10;15.60;;;;;;5011907;28;20240;-68
2023/06/05 05:38:27;;;;;;;6.70;4.43;;;14.40;14.60;;;;;;5010560;28;20468;-70
2023/06/05 05:40:52;;;;;;;5.33;4.73;;;14.70;14.60;;;;;;5010563;28;20181;-69
2023/06/05 05:43:18;;;;;;;5.70;4.33;;;15.00;14.30;;;;;;5011574;28;20425;-69
2023/06/05 05:45:44;;;;;;;6.43;4.90;;;15.40;13.40;;;;;;5011755;28;20222;-69
2023/06/05 05:48:11;;;;;;;7.50;5.33;;;16.70;9.10;;;;;;5010498;28;20187;-68
2023/06/05 05:50:36;;;;;;;7.27;5.83;;;17.40;3.60;;;;;;5012256;28;20988;-69
2023/06/05 05:53:03;;;;;;;8.00;5.47;;;18.90;5.80;;;;;;5011611;28;20454;-69
2023/06/05 05:55:28;;;;;;;7.33;5.73;;;21.00;3.60;;;;;;5012198;28;20177;-70
2023/06/05 05:57:54;;;;;;;9.00;6.17;;;23.00;1.00;;;;;;5010365;28;20465;-69
2023/06/05 06:00:21;;;;;;;7.70;6.57;;;24.80;1.00;;;;;;5013308;28;20184;-69
2023/06/05 06:02:47;;;;;;;7.33;6.63;;;26.50;1.00;;;;;;5015104;28;20430;-69
2023/06/05 06:05:13;;;;;;;9.00;6.00;;;27.40;1.00;;;;;;5013908;28;20414;-69
2023/06/05 06:07:40;;;;;;;7.30;6.70;;;28.50;1.00;;;;;;5015419;28;20768;-69
2023/06/05 06:10:07;;;;;;;7.17;6.37;;;29.10;1.00;;;;;;5015297;28;20172;-69
2023/06/05 06:12:33;;;;;;;6.93;6.40;;;30.50;1.00;;;;;;5013732;28;20445;-70
2023/06/05 06:14:59;;;;;;;7.40;6.80;;;30.50;1.00;;;;;;5015965;28;20414;-69
2023/06/05 06:17:24;;;;;;;7.60;7.00;;;31.20;1.00;;;;;;5014882;28;20516;-70
2023/06/05 06:19:50;;;;;;;7.83;6.83;;;32.00;1.00;;;;;;5015523;28;20183;-70
2023/06/05 06:22:15;;;;;;;25.57;8.43;;;33.10;1.00;;;;;;5015628;28;20705;-70
2023/06/05 06:24:42;;;;;;;22.83;8.60;;;34.00;1.00;;;;;;5016664;28;20173;-70
2023/06/05 06:27:12;;;;;;;8.00;7.30;;;34.70;1.00;;;;;;5015832;28;20270;-70
2023/06/05 06:29:52;;;;;;;6.97;6.33;;;34.40;1.00;;;;;;5014053;28;20433;-70
2023/06/05 06:32:18;;;;;;;8.57;7.73;;;35.00;1.00;;;;;;5014766;28;20466;-70
2023/06/05 06:34:44;;;;;;;10.03;8.13;;;34.30;1.00;;;;;;5015192;28;20920;-70
2023/06/05 06:37:14;;;;;;;6.90;6.20;;;34.70;1.00;;;;;;5014814;28;20294;-69
2023/06/05 06:39:43;;;;;;;7.80;7.10;;;33.90;1.00;;;;;;5014779;28;20506;-69
2023/06/05 06:42:10;;;;;;;7.43;6.83;;;34.40;1.00;;;;;;5013035;28;20496;-69
2023/06/05 06:44:38;;;;;;;7.90;7.23;;;35.20;1.00;;;;;;5013611;28;20996;-69
2023/06/05 06:47:05;;;;;;;7.47;6.70;;;35.10;1.00;;;;;;5014469;28;20434;-70
2023/06/05 06:49:33;;;;;;;6.73;6.13;;;35.10;1.00;;;;;;5014270;28;20458;-69
2023/06/05 06:52:00;;;;;;;8.00;7.20;;;35.80;1.00;;;;;;5014127;28;20450;-69
2023/06/05 06:54:28;;;;;;;6.90;6.30;;;34.80;1.00;;;;;;5012900;28;20431;-69
2023/06/05 06:56:56;;;;;;;7.50;6.80;;;34.40;1.00;;;;;;5012757;28;20442;-69
2023/06/05 06:59:22;;;;;;;9.60;6.13;;;35.20;1.00;;;;;;5014286;28;20414;-70
2023/06/05 07:02:11;;;;;;;9.93;5.97;;;35.70;1.00;;;;;;5012474;28;20474;-70
2023/06/05 07:04:38;;;;;;;7.60;5.87;;;35.70;1.00;;;;;;5014374;28;20469;-69
2023/06/05 07:07:04;;;;;;;7.33;6.43;;;35.30;1.00;;;;;;5014400;28;20477;-69
2023/06/05 07:09:30;;;;;;;7.67;6.57;;;35.40;1.00;;;;;;5014266;28;20411;-69
2023/06/05 07:11:55;;;;;;;7.07;6.47;;;35.30;1.00;;;;;;5012725;28;20525;-69
2023/06/05 07:14:22;;;;;;;7.17;6.57;;;35.70;1.00;;;;;;5014654;28;20608;-69
2023/06/05 07:16:48;;;;;;;7.67;6.97;;;36.50;1.00;;;;;;5014365;28;20179;-70
2023/06/05 07:19:15;;;;;;;7.23;5.93;;;37.20;1.00;;;;;;5014014;28;20419;-70
2023/06/05 07:21:41;;;;;;;7.20;6.50;;;36.40;1.00;;;;;;5013438;28;20497;-70
2023/06/05 07:24:07;;;;;;;8.07;7.37;;;37.00;1.00;;;;;;5014180;28;20899;-70
2023/06/05 07:26:33;;;;;;;6.70;5.80;;;36.60;1.00;;;;;;5013677;28;20267;-70
2023/06/05 07:28:59;;;;;;;8.53;6.60;;;37.00;1.00;;;;;;5012357;28;20462;-70
2023/06/05 07:31:25;;;;;;;7.33;6.63;;;37.30;1.00;;;;;;5013481;28;20220;-70
2023/06/05 07:33:51;;;;;;;7.23;6.10;;;36.10;1.00;;;;;;5012246;28;20457;-69
2023/06/05 07:36:17;;;;;;;7.17;5.50;;;35.50;1.00;;;;;;5013650;28;20505;-69
2023/06/05 07:38:43;;;;;;;6.97;6.43;;;36.00;1.00;;;;;;5012379;28;21061;-68
2023/06/05 07:41:10;;;;;;;6.77;6.13;;;36.60;1.00;;;;;;5013840;28;20172;-70
2023/06/05 07:43:40;;;;;;;7.40;6.80;;;36.50;1.00;;;;;;5012127;28;20195;-70
2023/06/05 07:46:05;;;;;;;7.30;6.53;;;35.80;1.00;;;;;;5013416;28;20492;-69
2023/06/05 07:48:31;;;;;;;6.63;5.97;;;36.30;1.00;;;;;;5013320;28;20502;-69
2023/06/05 07:50:57;;;;;;;7.47;6.87;;;35.80;1.00;;;;;;5013072;28;20180;-69
2023/06/05 07:53:22;;;;;;;5.80;5.30;;;34.80;1.00;;;;;;5011755;28;20187;-69
2023/06/05 07:55:48;;;;;;;6.80;6.20;;;33.90;1.00;;;;;;5013310;28;20238;-69
2023/06/05 07:58:16;;;;;;;6.27;5.77;;;35.10;1.00;;;;;;5013144;28;20218;-69
2023/06/05 08:00:43;;;;;;;10.67;5.77;;;35.70;1.00;;;;;;5013128;28;20569;-70
2023/06/05 08:03:09;;;;;;;7.43;6.53;;;36.10;1.00;;;;;;5012772;28;20939;-70
2023/06/05 08:05:35;;;;;;;16.27;8.67;;;36.70;1.00;;;;;;5013066;28;20468;-70
2023/06/05 08:08:02;;;;;;;9.43;6.47;;;36.70;1.00;;;;;;5012905;28;20203;-70
2023/06/05 08:10:27;;;;;;;6.43;5.83;;;37.00;1.00;;;;;;5012648;28;20443;-68
2023/06/05 08:12:53;;;;;;;10.07;6.60;;;36.60;1.00;;;;;;5012318;28;20847;-69
2023/06/05 08:15:18;;;;;;;6.43;5.83;;;36.60;1.00;;;;;;5012647;28;20549;-69
2023/06/05 08:17:44;;;;;;;6.07;5.43;;;36.70;1.00;;;;;;5012581;28;20708;-69
2023/06/05 08:20:10;;;;;;;6.57;6.07;;;35.80;1.00;;;;;;5012560;28;20176;-69
2023/06/05 08:22:39;;;;;;;6.80;6.30;;;34.80;1.00;;;;;;5012099;28;20198;-69
2023/06/05 08:25:06;;;;;;;7.07;6.40;;;35.60;1.00;;;;;;5012529;28;20448;-69
2023/06/05 08:27:32;;;;;;;6.77;6.27;;;36.60;1.00;;;;;;5012397;28;20501;-69
2023/06/05 08:29:59;;;;;;;5.97;5.37;;;36.70;1.00;;;;;;5012651;28;20845;-69
2023/06/05 08:32:25;;;;;;;9.60;6.30;;;36.90;1.00;;;;;;5011983;28;20302;-70
2023/06/05 08:34:50;;;;;;;6.50;5.90;;;37.30;1.00;;;;;;5012310;28;20571;-70
2023/06/05 08:37:16;;;;;;;6.47;5.97;;;38.60;1.00;;;;;;5012817;28;20258;-69
2023/06/05 08:39:41;;;;;;;6.57;6.00;;;37.80;1.00;;;;;;5012296;28;20187;-69
2023/06/05 08:42:10;;;;;;;7.70;7.00;;;38.00;1.00;;;;;;5011876;28;20200;-70
2023/06/05 08:44:36;;;;;;;7.03;5.90;;;37.30;1.00;;;;;;5012318;28;20187;-70
2023/06/05 08:47:02;;;;;;;15.00;7.50;;;37.00;1.00;;;;;;5011000;28;20941;-70
2023/06/05 08:49:29;;;;;;;6.20;5.60;;;35.20;1.00;;;;;;5012163;28;20732;-69
2023/06/05 08:52:00;;;;;;;7.43;6.80;;;33.20;1.00;;;;;;5011846;28;20442;-70
2023/06/05 08:54:27;;;;;;;7.50;6.80;;;33.30;1.00;;;;;;5012189;28;20422;-69
2023/06/05 08:56:52;;;;;;;8.90;6.60;;;34.20;1.00;;;;;;5011960;28;20414;-69
2023/06/05 08:59:19;;;;;;;7.47;6.50;;;34.40;1.00;;;;;;5011913;28;20457;-69
2023/06/05 09:01:47;;;;;;;7.40;6.70;;;35.60;1.00;;;;;;5011545;28;20195;-69
2023/06/05 09:04:12;;;;;;;7.03;6.43;;;35.40;1.00;;;;;;5011783;28;20469;-68
2023/06/05 09:06:39;;;;;;;7.60;6.60;;;36.80;1.00;;;;;;5012284;28;20664;-68
2023/06/05 09:09:05;;;;;;;10.27;6.70;;;36.10;1.00;;;;;;5011738;28;20610;-69
2023/06/05 09:11:31;;;;;;;6.53;6.10;;;35.90;1.00;;;;;;5011647;28;20434;-68
2023/06/05 09:13:59;;;;;;;8.40;7.70;;;35.70;1.00;;;;;;5011661;28;20838;-69
2023/06/05 09:16:37;;;;;;;8.57;7.77;;;33.20;1.00;;;;;;5011824;28;20465;-68
2023/06/05 09:19:03;;;;;;;10.43;8.10;;;29.80;1.00;;;;;;5011635;28;20843;-68
2023/06/05 09:21:30;;;;;;;7.70;7.10;;;28.30;1.00;;;;;;5011412;28;20480;-69
2023/06/05 09:24:19;;;;;;;8.20;7.47;;;27.00;1.00;;;;;;5011662;28;20779;-68
2023/06/05 09:27:00;;;;;;;10.47;8.70;;;25.90;1.00;;;;;;5011685;28;20473;-68
2023/06/05 09:29:27;;;;;;;7.77;7.10;;;25.30;1.00;;;;;;5011706;28;20447;-68
2023/06/05 09:31:55;;;;;;;7.60;7.00;;;24.80;1.00;;;;;;5011724;28;20455;-68
2023/06/05 09:34:28;;;;;;;6.80;6.20;;;24.80;1.00;;;;;;5013453;28;20935;-68
2023/06/05 09:36:57;;;;;;;9.70;7.00;;;24.60;1.00;;;;;;5015617;28;20403;-68
2023/06/05 09:39:25;;;;;;;9.47;6.70;;;24.50;1.00;;;;;;5015680;28;20501;-68
2023/06/05 09:41:51;;;;;;;7.43;6.80;;;24.40;1.00;;;;;;5015186;28;20467;-68
2023/06/05 09:44:17;;;;;;;10.80;7.93;;;24.10;1.00;;;;;;5015732;28;20422;-69
2023/06/05 09:46:53;;;;;;;7.70;6.67;;;24.20;1.00;;;;;;5015427;28;20418;-68
2023/06/05 09:49:19;;;;;;;6.30;5.80;;;24.40;1.00;;;;;;5015391;28;20414;-69
2023/06/05 09:51:46;;;;;;;7.47;6.87;;;24.80;1.00;;;;;;5014744;28;20526;-68
2023/06/05 09:54:12;;;;;;;7.53;6.93;;;24.90;1.00;;;;;;5015119;28;20418;-68
2023/06/05 09:56:40;;;;;;;7.83;7.13;;;25.00;1.00;;;;;;5015223;28;20448;-68
2023/06/05 09:59:08;;;;;;;7.37;6.60;;;25.20;1.00;;;;;;5014977;28;20458;-69
2023/06/05 10:01:36;;;;;;;6.10;5.60;;;25.10;1.00;;;;;;5014902;28;20434;-70
2023/06/05 10:04:08;;;;;;;9.10;6.63;;;25.00;1.00;;;;;;5015092;28;20494;-68
2023/06/05 10:06:36;;;;;;;7.00;6.40;;;25.00;1.00;;;;;;5013669;28;20562;-67
2023/06/05 10:09:02;;;;;;;7.93;6.60;;;24.70;1.00;;;;;;5015068;28;20522;-67
2023/06/05 10:11:28;;;;;;;8.17;7.43;;;24.70;1.00;;;;;;5014569;28;20773;-69
2023/06/05 10:13:58;;;;;;;6.90;6.30;;;24.90;1.00;;;;;;5014775;28;20425;-68
2023/06/05 10:16:27;;;;;;;8.10;7.40;;;24.90;1.00;;;;;;5014763;28;20415;-68
2023/06/05 10:18:55;;;;;;;6.73;5.83;;;24.70;1.00;;;;;;5014760;28;20554;-68
2023/06/05 10:21:20;;;;;;;8.37;6.27;;;24.90;1.00;;;;;;5014460;28;20439;-69
2023/06/05 10:23:53;;;;;;;6.43;5.90;;;25.20;1.00;;;;;;5014555;28;20407;-68
2023/06/05 10:26:38;;;;;;;8.83;7.67;;;25.30;1.00;;;;;;5014686;28;20176;-68
2023/06/05 10:29:33;;;;;;;9.07;7.30;;;25.40;1.00;;;;;;5014669;28;20410;-69
2023/06/05 10:32:19;;;;;;;8.43;6.97;;;25.30;1.00;;;;;;5014960;28;20477;-69
2023/06/05 10:35:06;;;;;;;6.70;6.10;;;25.30;1.00;;;;;;5015153;28;20790;-68
2023/06/05 10:37:51;;;;;;;6.80;6.20;;;25.30;1.00;;;;;;5014376;28;20454;-67
2023/06/05 10:40:17;;;;;;;6.00;5.60;;;25.20;1.00;;;;;;5000880;28;20459;-68
2023/06/05 10:42:43;;;;;;;7.90;6.63;;;25.10;1.00;;;;;;5007848;28;20998;-69
2023/06/05 10:45:09;;;;;;;7.00;6.40;;;25.30;1.00;;;;;;5004621;28;20490;-68
2023/06/05 10:47:35;;;;;;;8.03;7.23;;;25.50;1.00;;;;;;4994803;28;20195;-69
2023/06/05 10:50:19;;;;;;;7.13;6.30;;;25.90;1.00;;;;;;4994915;28;20416;-69
2023/06/05 10:52:48;;;;;;;10.77;7.43;;;26.10;1.00;;;;;;5009900;28;20210;-68
2023/06/05 10:55:17;;;;;;;6.90;6.30;;;26.20;1.00;;;;;;5014028;28;20893;-68
2023/06/05 10:58:01;;;;;;;7.10;6.60;;;26.40;1.00;;;;;;5009008;28;20467;-68
2023/06/05 11:00:31;;;;;;;7.43;6.20;;;26.80;1.00;;;;;;5013976;28;20453;-68
2023/06/05 11:02:57;;;;;;;6.97;6.47;;;27.20;1.00;;;;;;5013250;28;20791;-68
2023/06/05 11:05:23;;;;;;;6.77;6.27;;;27.10;1.00;;;;;;5013807;28;20521;-68
2023/06/05 11:08:10;;;;;;;8.10;7.23;;;26.80;1.00;;;;;;5012550;28;20517;-68
2023/06/05 11:10:36;;;;;;;18.77;7.67;;;26.10;1.00;;;;;;5013808;28;20631;-68
2023/06/05 11:13:02;;;;;;;8.40;7.70;;;25.80;1.00;;;;;;5013404;28;20447;-68
2023/06/05 11:15:28;;;;;;;7.90;7.10;;;25.60;1.00;;;;;;5011793;28;20191;-69
2023/06/05 11:17:53;;;;;;;7.37;6.77;;;25.90;1.00;;;;;;5012526;28;20466;-68
2023/06/05 11:20:26;;;;;;;7.57;7.00;;;26.30;1.00;;;;;;5007853;28;21184;-68
2023/06/05 11:23:01;;;;;;;7.87;7.10;;;26.30;1.00;;;;;;4993046;28;20204;-70
2023/06/05 11:25:32;;;;;;;8.43;7.53;;;26.00;1.00;;;;;;4994156;28;20413;-67
2023/06/05 11:28:07;;;;;;;6.80;6.20;;;26.00;1.00;;;;;;5003247;28;20533;-68
2023/06/05 11:30:43;;;;;;;6.63;6.00;;;26.20;1.00;;;;;;5012031;28;20530;-69
2023/06/05 11:33:12;;;;;;;7.00;6.30;;;26.30;1.00;;;;;;5012874;28;20477;-68
2023/06/05 11:35:38;;;;;;;10.67;8.10;;;26.20;1.00;;;;;;5011507;28;20529;-68
2023/06/05 11:38:15;;;;;;;7.20;6.70;;;26.10;1.00;;;;;;5013022;28;20466;-68
2023/06/05 11:40:42;;;;;;;7.37;6.63;;;25.70;1.00;;;;;;4993652;28;20849;-69
2023/06/05 11:43:13;;;;;;;8.20;7.60;;;26.00;1.00;;;;;;4991762;28;20431;-68
2023/06/05 11:45:48;;;;;;;6.80;6.30;;;26.40;1.00;;;;;;5002593;28;20995;-70
2023/06/05 11:48:14;;;;;;;6.80;6.20;;;26.60;1.00;;;;;;5012093;28;20988;-69
2023/06/05 11:50:55;;;;;;;10.60;6.53;;;26.60;1.00;;;;;;5011852;28;20473;-68
2023/06/05 11:53:21;;;;;;;8.43;6.80;;;26.20;1.00;;;;;;5013002;28;20738;-68
2023/06/05 11:58:26;;;;;;;7.53;6.90;;;26.10;1.00;;;;;;5012305;28;20570;-68
2023/06/05 12:01:03;;;;;;;7.50;6.90;;;26.00;1.00;;;;;;5012039;28;20947;-69
2023/06/05 12:03:28;;;;;;;7.07;6.47;;;26.10;1.00;;;;;;5012507;28;20430;-69
2023/06/05 12:05:54;;;;;;;10.13;7.87;;;26.30;1.00;;;;;;5010828;28;20927;-70
2023/06/05 12:08:37;;;;;;;8.13;7.33;;;26.20;1.00;;;;;;5013707;28;20226;-68
2023/06/05 12:11:03;;;;;;;7.60;6.90;;;26.30;1.00;;;;;;5012789;28;20688;-69
2023/06/05 12:13:50;;;;;;;7.43;6.83;;;26.60;1.00;;;;;;5012530;28;20435;-69
2023/06/05 12:16:20;;;;;;;7.10;6.40;;;27.00;1.00;;;;;;5012785;28;20791;-69
2023/06/05 12:18:47;;;;;;;11.00;7.30;;;27.30;1.00;;;;;;5012679;28;20490;-69
2023/06/05 12:21:24;;;;;;;6.20;5.70;;;27.40;1.00;;;;;;5012634;28;20970;-69
2023/06/05 12:23:51;;;;;;;7.00;6.40;;;27.40;1.00;;;;;;5012438;28;20406;-69
2023/06/05 12:26:17;;;;;;;7.73;7.03;;;27.40;1.00;;;;;;5012402;28;20506;-69
2023/06/05 12:28:44;;;;;;;7.93;7.07;;;27.20;1.00;;;;;;5012391;28;20457;-68
2023/06/05 12:31:36;;;;;;;6.90;6.40;;;27.20;1.00;;;;;;5012304;28;20454;-69
2023/06/05 12:34:03;;;;;;;6.97;6.47;;;27.60;1.00;;;;;;5012528;28;20473;-69
2023/06/05 12:36:31;;;;;;;8.23;7.40;;;27.90;1.00;;;;;;5012767;28;20407;-69
2023/06/05 12:39:03;;;;;;;7.90;7.20;;;27.90;1.00;;;;;;5011178;28;20465;-69
2023/06/05 12:41:29;;;;;;;7.67;6.30;;;27.80;1.00;;;;;;5012132;28;20489;-71
2023/06/05 12:44:04;;;;;;;10.43;6.97;;;27.50;1.00;;;;;;5011685;28;20813;-69
2023/06/05 12:46:32;;;;;;;7.10;6.60;;;27.50;1.00;;;;;;5011438;28;20175;-68
2023/06/05 12:48:59;;;;;;;7.60;7.10;;;27.50;1.00;;;;;;5011528;28;20787;-68
2023/06/05 12:51:26;;;;;;;10.97;7.20;;;27.30;1.00;;;;;;5012467;28;20435;-68
2023/06/05 12:53:55;;;;;;;6.53;5.93;;;27.20;1.00;;;;;;5012876;28;20407;-69
2023/06/05 12:56:24;;;;;;;14.33;8.20;;;27.10;1.00;;;;;;5012672;28;20440;-68
2023/06/05 12:58:59;;;;;;;7.53;6.93;;;26.90;1.00;;;;;;5011366;28;20505;-67